createdAt,value
2023-01-17T00:03:46.044Z,0
2023-01-17T00:09:03.761Z,0
2023-01-17T00:14:21.005Z,0
2023-01-17T00:19:38.343Z,0
2023-01-17T00:30:21.594Z,0
2023-01-17T00:35:39.535Z,0
2023-01-17T00:40:57.002Z,0
2023-01-17T00:46:14.604Z,0
2023-01-17T00:51:32.089Z,0
2023-01-17T00:56:49.506Z,0
2023-01-17T01:02:14.552Z,0
2023-01-17T01:07:32.084Z,0
2023-01-17T01:12:49.646Z,0
2023-01-17T01:18:07.090Z,0
2023-01-17T01:23:24.556Z,0
2023-01-17T01:28:42.199Z,0
2023-01-17T01:33:59.669Z,0
2023-01-17T01:39:17.186Z,0
2023-01-17T01:44:37.281Z,0
2023-01-17T01:49:54.648Z,0
2023-01-17T01:55:15.121Z,0
2023-01-17T02:00:32.819Z,0
2023-01-17T02:05:50.134Z,0
2023-01-17T02:11:07.737Z,0
2023-01-17T02:16:29.201Z,0
2023-01-17T02:21:46.812Z,0
2023-01-17T02:27:04.255Z,0
2023-01-17T02:32:23.619Z,0
2023-01-17T02:37:41.229Z,0
2023-01-17T02:42:58.410Z,0
2023-01-17T02:48:15.925Z,0
2023-01-17T02:53:33.407Z,0
2023-01-17T02:58:50.921Z,0
2023-01-17T03:04:08.347Z,0
2023-01-17T03:09:25.870Z,0
2023-01-17T03:14:46.319Z,0
2023-01-17T03:20:03.611Z,0
2023-01-17T03:25:21.133Z,0
2023-01-17T03:30:38.668Z,0
2023-01-17T03:35:56.296Z,0
2023-01-17T03:41:16.635Z,0
2023-01-17T03:46:34.266Z,0
2023-01-17T03:51:51.712Z,0
2023-01-17T03:57:10.626Z,0
2023-01-17T04:02:28.090Z,0
2023-01-17T04:07:45.491Z,0
2023-01-17T04:13:03.149Z,0
2023-01-17T04:18:20.638Z,0
2023-01-17T04:28:55.509Z,0
2023-01-17T04:34:13.069Z,0
2023-01-17T04:39:30.515Z,0
2023-01-17T04:44:48.281Z,0
2023-01-17T04:55:29.031Z,0
2023-01-17T05:00:46.504Z,0
2023-01-17T05:06:03.970Z,0
2023-01-17T05:11:21.561Z,0
2023-01-17T05:16:39.007Z,0
2023-01-17T05:21:56.461Z,0
2023-01-17T05:27:13.863Z,0
2023-01-17T05:32:31.359Z,0
2023-01-17T05:37:57.883Z,0
2023-01-17T05:43:15.327Z,0
2023-01-17T05:48:32.773Z,0
2023-01-17T05:53:50.206Z,0
2023-01-17T05:59:07.512Z,0
2023-01-17T06:04:24.910Z,0
2023-01-17T06:09:42.717Z,0
2023-01-17T06:15:21.113Z,0
2023-01-17T06:20:39.008Z,0
2023-01-17T06:25:56.578Z,0
2023-01-17T06:31:13.973Z,0
2023-01-17T06:36:31.709Z,0
2023-01-17T06:41:49.223Z,0
2023-01-17T06:47:06.594Z,0
2023-01-17T06:52:31.072Z,0
2023-01-17T06:57:48.707Z,0
2023-01-17T07:03:05.945Z,0
2023-01-17T07:08:23.140Z,18.3
2023-01-17T07:13:46.543Z,40.4
2023-01-17T07:19:03.780Z,79.6
2023-01-17T07:24:21.241Z,137.1
2023-01-17T07:29:38.955Z,216.3
2023-01-17T07:34:56.184Z,313.7
2023-01-17T07:40:13.096Z,427.9
2023-01-17T07:50:50.396Z,749.6
2023-01-17T07:56:07.634Z,914.6
2023-01-17T08:01:25.007Z,1080
2023-01-17T08:12:09.834Z,1616.7
2023-01-17T08:17:27.355Z,2158.3
2023-01-17T08:22:44.896Z,2540
2023-01-17T08:28:02.099Z,3320
2023-01-17T08:33:22.653Z,3010.8
2023-01-17T08:38:39.501Z,4013.3
2023-01-17T08:43:57.788Z,4016.7
2023-01-17T08:49:14.227Z,4421.7
2023-01-17T08:54:32.275Z,4471.3
2023-01-17T08:59:49.248Z,4670
2023-01-17T09:05:06.640Z,4426.7
2023-01-17T09:10:28.067Z,4254.2
2023-01-17T09:15:45.570Z,4119.6
2023-01-17T09:21:02.920Z,4693.3
2023-01-17T09:26:20.359Z,5420.4
2023-01-17T09:31:37.856Z,5344.6
2023-01-17T09:36:55.113Z,5546.7
2023-01-17T09:42:29.661Z,5476.3
2023-01-17T09:47:47.105Z,5136.3
2023-01-17T09:53:03.932Z,4859.6
2023-01-17T09:58:20.973Z,5956.3
2023-01-17T10:03:38.601Z,6353.8
2023-01-17T10:08:56.716Z,7082.1
2023-01-17T10:14:14.764Z,7748.3
2023-01-17T10:19:32.010Z,8040.4
2023-01-17T10:30:06.791Z,10411.7
2023-01-17T10:35:27.503Z,8480.8
2023-01-17T10:40:44.892Z,8842.5
2023-01-17T10:46:02.138Z,9053.3
2023-01-17T10:51:19.695Z,9290.4
2023-01-17T10:56:36.843Z,9257.1
2023-01-17T11:01:54.341Z,8629.2
2023-01-17T11:07:11.687Z,8920.8
2023-01-17T11:17:51.350Z,9620.4
2023-01-17T11:23:08.822Z,9533.7
2023-01-17T11:28:26.489Z,9990.8
2023-01-17T11:33:43.810Z,9541.2
2023-01-17T11:39:09.971Z,10570
2023-01-17T11:44:27.503Z,11437.5
2023-01-17T11:50:06.241Z,10440.8
2023-01-17T11:55:23.308Z,9062.1
2023-01-17T12:00:41.758Z,9958.8
2023-01-17T12:05:58.317Z,12516.7
2023-01-17T12:11:19.255Z,13746.3
2023-01-17T12:16:36.621Z,12443.3
2023-01-17T12:21:53.555Z,6192.5
2023-01-17T12:27:28.342Z,8645.4
2023-01-17T12:32:45.471Z,10595.4
2023-01-17T12:38:05.057Z,8767.1
2023-01-17T12:43:22.307Z,7911.7
2023-01-17T12:48:39.569Z,7193.8
2023-01-17T12:53:56.617Z,6626.3
2023-01-17T12:59:13.687Z,7278.3
2023-01-17T13:04:30.894Z,7119.2
2023-01-17T13:09:54.675Z,8088.3
2023-01-17T13:15:11.987Z,8375.4
2023-01-17T13:20:29.460Z,7631.3
2023-01-17T13:25:47.000Z,8167.9
2023-01-17T13:31:04.097Z,6133.7
2023-01-17T13:36:20.839Z,6774.6
2023-01-17T13:41:39.933Z,5534.6
2023-01-17T13:46:56.760Z,5120.4
2023-01-17T13:52:13.489Z,4820.4
2023-01-17T13:57:30.463Z,4393.8
2023-01-17T14:02:47.485Z,3381.2
2023-01-17T14:08:04.639Z,2701.7
2023-01-17T14:13:21.563Z,2796.3
2023-01-17T14:23:59.153Z,2513.8
2023-01-17T14:29:16.126Z,2157.1
2023-01-17T14:34:33.248Z,2248.3
2023-01-17T14:39:50.722Z,2321.3
2023-01-17T14:45:07.937Z,2256.7
2023-01-17T14:50:24.894Z,2186.7
2023-01-17T14:55:42.213Z,2093.3
2023-01-17T15:00:59.514Z,1965.8
2023-01-17T15:06:16.509Z,1764.6
2023-01-17T15:11:33.754Z,1603.7
2023-01-17T15:16:50.785Z,1428.7
2023-01-17T15:22:07.715Z,1212.5
2023-01-17T15:27:24.794Z,1005.4
2023-01-17T15:32:41.768Z,843.7
2023-01-17T15:37:58.591Z,708.3
2023-01-17T15:43:15.671Z,533.3
2023-01-17T15:48:35.533Z,380
2023-01-17T15:53:52.467Z,261.2
2023-01-17T15:59:12.690Z,177.1
2023-01-17T16:04:29.997Z,113.3
2023-01-17T16:09:56.231Z,64.6
2023-01-17T16:15:13.842Z,31.2
2023-01-17T16:20:40.362Z,0.9
2023-01-17T16:25:58.422Z,0
2023-01-17T16:31:15.902Z,0
2023-01-17T16:36:33.261Z,0
2023-01-17T16:41:50.684Z,0
2023-01-17T16:47:08.303Z,0
2023-01-17T16:52:26.841Z,0
2023-01-17T16:57:47.343Z,0
2023-01-17T17:03:05.048Z,0
2023-01-17T17:08:22.713Z,0
2023-01-17T17:13:40.370Z,0
2023-01-17T17:18:57.879Z,0
2023-01-17T17:24:18.322Z,0
2023-01-17T17:29:35.827Z,0
2023-01-17T17:34:53.195Z,0
2023-01-17T17:40:31.657Z,0
2023-01-17T17:45:49.601Z,0
2023-01-17T17:51:07.440Z,0
2023-01-17T17:56:25.377Z,0
2023-01-17T18:01:42.845Z,0
2023-01-17T18:07:00.553Z,0
2023-01-17T18:12:18.163Z,0
2023-01-17T18:17:35.762Z,0
2023-01-17T18:22:53.637Z,0
2023-01-17T18:28:10.848Z,0
2023-01-17T18:33:33.333Z,0
2023-01-17T18:38:51.164Z,0
2023-01-17T18:44:08.958Z,0
2023-01-17T18:49:26.515Z,0
2023-01-17T18:54:43.920Z,0
2023-01-17T19:00:03.886Z,0
2023-01-17T19:05:21.442Z,0
2023-01-17T19:10:38.872Z,0
2023-01-17T19:15:56.113Z,0
2023-01-17T19:21:13.650Z,0
2023-01-17T19:26:31.057Z,0
2023-01-17T19:31:48.725Z,0
2023-01-17T19:37:06.292Z,0
2023-01-17T19:42:23.639Z,0
2023-01-17T19:47:41.039Z,0
2023-01-17T19:52:59.063Z,0
2023-01-17T19:58:16.620Z,0
2023-01-17T20:09:01.105Z,0
2023-01-17T20:14:18.514Z,0
2023-01-17T20:19:36.094Z,0
2023-01-17T20:24:53.543Z,0
2023-01-17T20:30:34.524Z,0
2023-01-17T20:36:09.029Z,0
2023-01-17T20:41:27.408Z,0
2023-01-17T20:46:44.882Z,0
2023-01-17T20:52:02.922Z,0
2023-01-17T20:57:21.346Z,0
2023-01-17T21:02:47.517Z,0
2023-01-17T21:08:14.156Z,0
2023-01-17T21:13:32.136Z,0
2023-01-17T21:18:56.274Z,0
2023-01-17T21:24:14.029Z,0
2023-01-17T21:34:58.226Z,0
2023-01-17T21:40:15.479Z,0
2023-01-17T21:45:32.870Z,0
2023-01-17T21:50:50.262Z,0
2023-01-17T22:01:31.001Z,0
2023-01-17T22:06:48.694Z,0
2023-01-17T22:12:06.089Z,0
2023-01-17T22:17:26.526Z,0
2023-01-17T22:22:44.261Z,0
2023-01-17T22:28:01.885Z,0
2023-01-17T22:33:19.211Z,0
2023-01-17T22:38:36.871Z,0
2023-01-17T22:43:59.776Z,0
2023-01-17T22:49:17.614Z,0
2023-01-17T22:54:35.023Z,0
2023-01-17T22:59:52.464Z,0
2023-01-17T23:05:09.777Z,0
2023-01-17T23:10:29.887Z,0
2023-01-17T23:15:47.285Z,0
2023-01-17T23:21:04.679Z,0
2023-01-17T23:26:22.212Z,0
2023-01-17T23:31:42.115Z,0
2023-01-17T23:36:59.824Z,0
2023-01-17T23:42:17.153Z,0
2023-01-17T23:47:37.363Z,0
2023-01-17T23:52:55.153Z,0
2023-01-17T23:58:12.720Z,0
